createdAt,value
2019-05-29T00:01:38.673Z,2.10
2019-05-29T00:04:08.041Z,2.00
2019-05-29T00:06:36.429Z,2.03
2019-05-29T00:09:06.049Z,2.17
2019-05-29T00:11:34.252Z,2.20
2019-05-29T00:14:18.748Z,2.40
2019-05-29T00:16:32.297Z,1.90
2019-05-29T00:19:00.546Z,2.10
2019-05-29T00:21:28.837Z,2.00
2019-05-29T00:23:57.080Z,1.87
2019-05-29T00:26:25.458Z,1.90
2019-05-29T00:28:53.658Z,1.90
2019-05-29T00:31:21.860Z,2.20
2019-05-29T00:33:50.065Z,2.20
2019-05-29T00:36:18.244Z,2.40
2019-05-29T00:38:46.420Z,2.50
2019-05-29T00:41:15.094Z,2.10
2019-05-29T00:43:43.276Z,1.90
2019-05-29T00:46:11.481Z,2.33
2019-05-29T00:48:39.685Z,2.20
2019-05-29T00:51:08.865Z,2.20
2019-05-29T00:53:37.139Z,1.97
2019-05-29T00:56:05.356Z,2.23
2019-05-29T00:58:33.573Z,2.00
2019-05-29T01:01:01.865Z,2.00
2019-05-29T01:03:30.077Z,1.93
2019-05-29T01:05:58.272Z,2.30
2019-05-29T01:08:26.482Z,2.27
2019-05-29T01:10:54.680Z,2.03
2019-05-29T01:13:22.856Z,2.10
2019-05-29T01:15:51.031Z,1.90
2019-05-29T01:18:19.988Z,1.80
2019-05-29T01:20:48.232Z,2.00
2019-05-29T01:23:16.424Z,1.93
2019-05-29T01:25:44.600Z,1.77
2019-05-29T01:28:12.821Z,2.10
2019-05-29T01:30:41.004Z,1.63
2019-05-29T01:33:10.166Z,2.13
2019-05-29T01:35:38.402Z,1.90
2019-05-29T01:38:06.593Z,1.93
2019-05-29T01:40:34.793Z,2.20
2019-05-29T01:43:02.979Z,2.00
2019-05-29T01:47:58.528Z,1.70
2019-05-29T01:50:27.830Z,2.10
2019-05-29T01:52:56.199Z,1.87
2019-05-29T01:55:24.525Z,1.93
2019-05-29T01:57:52.695Z,1.80
2019-05-29T02:00:21.988Z,2.00
2019-05-29T02:02:50.317Z,1.97
2019-05-29T02:05:19.850Z,1.87
2019-05-29T02:07:48.295Z,2.10
2019-05-29T02:10:16.601Z,2.20
2019-05-29T02:12:44.828Z,2.20
2019-05-29T02:15:23.913Z,2.27
2019-05-29T02:17:43.190Z,2.00
2019-05-29T02:20:11.390Z,2.20
2019-05-29T02:22:39.590Z,2.07
2019-05-29T02:25:07.886Z,2.33
2019-05-29T02:27:36.085Z,2.33
2019-05-29T02:30:07.582Z,2.23
2019-05-29T02:32:35.879Z,2.57
2019-05-29T02:35:05.714Z,2.20
2019-05-29T02:37:33.978Z,2.20
2019-05-29T02:40:02.219Z,2.00
2019-05-29T02:42:30.510Z,2.23
2019-05-29T02:44:58.773Z,2.50
2019-05-29T02:47:28.074Z,2.23
2019-05-29T02:49:56.844Z,2.00
2019-05-29T02:52:26.310Z,2.00
2019-05-29T02:54:54.613Z,2.33
2019-05-29T02:57:22.920Z,2.30
2019-05-29T02:59:51.932Z,2.03
2019-05-29T03:02:21.515Z,2.20
2019-05-29T03:04:49.811Z,2.00
2019-05-29T03:07:18.099Z,2.17
2019-05-29T03:09:46.388Z,2.43
2019-05-29T03:12:14.669Z,2.30
2019-05-29T03:14:42.904Z,2.20
2019-05-29T03:17:11.109Z,2.07
2019-05-29T03:19:39.302Z,1.90
2019-05-29T03:22:07.596Z,2.40
2019-05-29T03:24:36.733Z,2.10
2019-05-29T03:27:04.964Z,2.33
2019-05-29T03:29:34.360Z,2.50
2019-05-29T03:32:02.723Z,1.97
2019-05-29T03:34:37.291Z,2.60
2019-05-29T03:37:00.882Z,2.33
2019-05-29T03:39:30.320Z,2.67
2019-05-29T03:41:58.652Z,2.50
2019-05-29T03:44:28.575Z,2.33
2019-05-29T03:46:56.945Z,2.20
2019-05-29T03:49:26.729Z,2.40
2019-05-29T03:54:22.442Z,2.30
2019-05-29T03:56:50.720Z,2.73
2019-05-29T03:59:18.929Z,3.00
2019-05-29T04:01:47.142Z,2.50
2019-05-29T04:04:15.312Z,2.43
2019-05-29T04:06:47.085Z,2.27
2019-05-29T04:09:13.393Z,2.60
2019-05-29T04:11:41.747Z,2.40
2019-05-29T04:14:09.954Z,2.40
2019-05-29T04:16:58.493Z,2.50
2019-05-29T04:19:08.662Z,3.00
2019-05-29T04:21:38.717Z,2.33
2019-05-29T04:24:07.160Z,3.07
2019-05-29T04:26:37.981Z,2.47
2019-05-29T04:29:06.302Z,2.60
2019-05-29T04:31:34.569Z,2.80
2019-05-29T04:34:04.238Z,2.60
2019-05-29T04:36:32.882Z,2.40
2019-05-29T04:39:01.607Z,2.50
2019-05-29T04:41:30.835Z,2.20
2019-05-29T04:43:59.116Z,2.40
2019-05-29T04:46:27.340Z,2.07
2019-05-29T04:48:55.646Z,2.10
2019-05-29T04:51:23.818Z,2.60
2019-05-29T04:53:52.068Z,2.47
2019-05-29T04:56:20.285Z,2.40
2019-05-29T04:58:48.464Z,2.17
2019-05-29T05:01:16.665Z,2.37
2019-05-29T05:03:44.865Z,2.10
2019-05-29T05:06:13.076Z,2.17
2019-05-29T05:08:41.248Z,2.40
2019-05-29T05:11:09.840Z,2.10
2019-05-29T05:13:38.045Z,2.30
2019-05-29T05:16:06.220Z,2.20
2019-05-29T05:18:34.420Z,2.33
2019-05-29T05:21:02.601Z,2.40
2019-05-29T05:23:31.903Z,2.13
2019-05-29T05:26:00.189Z,2.33
2019-05-29T05:28:28.413Z,2.43
2019-05-29T05:30:56.577Z,2.43
2019-05-29T05:33:24.785Z,2.30
2019-05-29T05:35:52.968Z,2.40
2019-05-29T05:38:21.141Z,2.37
2019-05-29T05:40:49.345Z,1.93
2019-05-29T05:43:24.156Z,2.50
2019-05-29T05:45:47.407Z,2.20
2019-05-29T05:48:15.623Z,2.23
2019-05-29T05:50:43.863Z,2.40
2019-05-29T05:53:12.111Z,2.00
2019-05-29T05:55:41.711Z,1.90
2019-05-29T05:58:10.105Z,2.00
2019-05-29T06:00:38.287Z,2.07
2019-05-29T06:03:06.480Z,2.30
2019-05-29T06:05:35.966Z,1.60
2019-05-29T06:08:04.397Z,1.93
2019-05-29T06:10:32.652Z,2.17
2019-05-29T06:13:00.833Z,1.97
2019-05-29T06:15:29.078Z,1.60
2019-05-29T06:18:10.399Z,2.20
2019-05-29T06:20:27.253Z,1.83
2019-05-29T06:22:55.633Z,2.00
2019-05-29T06:25:23.801Z,2.33
2019-05-29T06:27:51.988Z,1.90
2019-05-29T06:30:20.216Z,2.20
2019-05-29T06:32:48.432Z,1.70
2019-05-29T06:35:16.680Z,2.33
2019-05-29T06:37:44.885Z,1.80
2019-05-29T06:40:14.604Z,1.63
2019-05-29T06:42:43.947Z,2.10
2019-05-29T06:45:12.350Z,2.00
2019-05-29T06:47:40.906Z,2.03
2019-05-29T06:50:09.645Z,1.70
2019-05-29T06:52:37.854Z,1.60
2019-05-29T06:55:06.140Z,1.83
2019-05-29T06:57:35.887Z,1.77
2019-05-29T07:05:00.033Z,2.00
2019-05-29T07:07:28.237Z,2.00
2019-05-29T07:09:56.417Z,1.80
2019-05-29T07:12:25.431Z,1.80
2019-05-29T07:14:53.693Z,1.83
2019-05-29T07:17:21.969Z,2.57
2019-05-29T07:20:00.428Z,1.60
2019-05-29T07:22:20.073Z,1.65
2019-05-29T07:24:48.259Z,1.70
2019-05-29T07:32:11.725Z,1.53
2019-05-29T07:34:51.330Z,1.70
2019-05-29T07:37:09.889Z,2.00
2019-05-29T07:39:38.127Z,1.80
2019-05-29T07:42:06.324Z,1.50
2019-05-29T07:44:34.538Z,1.73
2019-05-29T07:47:02.780Z,2.10
2019-05-29T07:50:34.288Z,1.90
2019-05-29T07:52:00.904Z,1.87
2019-05-29T07:54:29.094Z,1.67
2019-05-29T07:56:57.377Z,1.50
2019-05-29T07:59:28.598Z,1.60
2019-05-29T08:01:56.462Z,1.70
2019-05-29T08:04:24.661Z,1.53
2019-05-29T08:06:54.658Z,1.60
2019-05-29T08:09:22.932Z,1.75
2019-05-29T08:11:51.135Z,1.50
2019-05-29T08:14:19.446Z,1.80
2019-05-29T08:16:48.102Z,1.80
2019-05-29T08:19:16.424Z,1.63
2019-05-29T08:24:12.556Z,1.50
2019-05-29T08:38:58.474Z,1.70
2019-05-29T08:41:26.660Z,1.70
2019-05-29T08:43:54.875Z,1.83
2019-05-29T08:46:23.189Z,1.80
2019-05-29T08:48:52.250Z,1.90
2019-05-29T08:51:20.708Z,1.60
2019-05-29T08:53:49.292Z,1.70
2019-05-29T08:56:18.803Z,1.70
2019-05-29T08:58:48.355Z,1.70
2019-05-29T09:01:16.645Z,1.65
2019-05-29T09:03:44.944Z,1.80
2019-05-29T09:06:13.832Z,1.90
2019-05-29T09:08:43.728Z,1.90
2019-05-29T09:11:12.002Z,1.73
2019-05-29T09:13:40.236Z,1.77
2019-05-29T09:16:08.469Z,1.70
2019-05-29T09:18:36.639Z,1.93
2019-05-29T09:21:04.824Z,1.93
2019-05-29T09:23:33.000Z,1.83
2019-05-29T09:26:14.134Z,1.93
2019-05-29T09:28:31.732Z,1.93
2019-05-29T09:30:59.942Z,2.00
2019-05-29T09:33:28.145Z,1.90
2019-05-29T09:35:56.529Z,1.70
2019-05-29T09:38:25.138Z,1.90
2019-05-29T09:40:53.452Z,2.10
2019-05-29T09:43:27.071Z,1.67
2019-05-29T09:45:51.573Z,1.80
2019-05-29T09:48:23.336Z,2.00
2019-05-29T09:50:50.851Z,1.70
2019-05-29T09:53:19.205Z,1.47
2019-05-29T09:55:47.404Z,1.90
2019-05-29T09:58:15.574Z,1.80
2019-05-29T10:00:43.752Z,1.70
2019-05-29T10:03:11.936Z,1.60
2019-05-29T10:05:40.135Z,2.00
2019-05-29T10:08:08.337Z,1.83
2019-05-29T10:10:36.653Z,1.90
2019-05-29T10:13:04.832Z,1.80
2019-05-29T10:15:33.008Z,1.40
2019-05-29T10:18:03.081Z,1.60
2019-05-29T10:20:31.544Z,1.47
2019-05-29T10:23:00.937Z,1.53
2019-05-29T10:25:29.174Z,1.80
2019-05-29T10:27:57.381Z,1.63
2019-05-29T10:30:25.920Z,1.67
2019-05-29T10:32:55.084Z,2.03
2019-05-29T10:35:23.262Z,1.73
2019-05-29T10:42:47.130Z,1.80
2019-05-29T10:45:15.621Z,1.70
2019-05-29T10:47:43.826Z,1.90
2019-05-29T10:50:12.064Z,1.70
2019-05-29T10:52:40.287Z,1.53
2019-05-29T10:55:08.653Z,1.90
2019-05-29T10:57:36.867Z,1.80
2019-05-29T11:00:06.632Z,1.63
2019-05-29T11:02:34.819Z,1.83
2019-05-29T11:05:03.004Z,2.10
2019-05-29T11:07:31.188Z,1.60
2019-05-29T11:09:59.403Z,1.77
2019-05-29T11:12:28.183Z,2.00
2019-05-29T11:14:56.945Z,1.73
2019-05-29T11:17:25.224Z,1.93
2019-05-29T11:19:53.618Z,1.63
2019-05-29T11:22:26.091Z,1.80
2019-05-29T11:24:52.375Z,1.87
2019-05-29T11:27:20.769Z,1.80
2019-05-29T11:29:48.965Z,1.87
2019-05-29T11:32:17.153Z,2.00
2019-05-29T11:34:45.440Z,1.93
2019-05-29T11:37:13.605Z,1.80
2019-05-29T11:39:41.818Z,1.70
2019-05-29T11:42:26.055Z,1.90
2019-05-29T11:44:40.055Z,2.03
2019-05-29T11:47:08.228Z,1.60
2019-05-29T11:49:36.438Z,1.80
2019-05-29T11:52:21.679Z,1.70
2019-05-29T11:54:34.581Z,1.73
2019-05-29T11:57:03.299Z,1.60
2019-05-29T11:59:31.609Z,1.70
2019-05-29T12:02:01.005Z,1.50
2019-05-29T12:04:29.672Z,1.80
2019-05-29T12:06:57.935Z,2.03
2019-05-29T12:09:32.826Z,1.83
2019-05-29T12:11:56.239Z,1.70
2019-05-29T12:14:24.569Z,1.50
2019-05-29T12:16:54.279Z,3.07
2019-05-29T12:19:23.529Z,1.57
2019-05-29T12:21:52.293Z,1.90
2019-05-29T12:24:20.612Z,1.40
2019-05-29T12:26:48.812Z,1.80
2019-05-29T12:29:17.012Z,1.90
2019-05-29T12:31:45.213Z,1.80
2019-05-29T12:34:19.222Z,1.83
2019-05-29T12:36:43.392Z,1.70
2019-05-29T12:39:11.597Z,1.90
2019-05-29T12:41:39.814Z,2.00
2019-05-29T12:44:08.036Z,1.67
2019-05-29T12:46:36.277Z,1.50
2019-05-29T12:49:04.511Z,1.67
2019-05-29T12:51:32.810Z,2.00
2019-05-29T12:56:28.473Z,1.80
2019-05-29T12:58:58.154Z,1.60
2019-05-29T13:01:26.596Z,1.70
2019-05-29T13:08:50.670Z,1.70
2019-05-29T13:11:19.885Z,1.80
2019-05-29T13:13:48.088Z,1.90
2019-05-29T13:16:16.275Z,1.87
2019-05-29T13:18:44.481Z,1.90
2019-05-29T13:21:12.692Z,1.90
2019-05-29T13:23:45.152Z,1.90
2019-05-29T13:26:10.756Z,1.90
2019-05-29T13:28:38.974Z,1.80
2019-05-29T13:31:07.155Z,1.65
2019-05-29T13:33:35.336Z,1.97
2019-05-29T13:36:04.479Z,1.80
2019-05-29T13:38:32.884Z,1.80
2019-05-29T13:41:02.538Z,1.60
2019-05-29T13:43:30.829Z,2.20
2019-05-29T13:48:26.718Z,2.00
2019-05-29T13:55:49.657Z,1.80
2019-05-29T13:58:17.845Z,1.80
2019-05-29T14:00:46.060Z,1.77
2019-05-29T14:03:14.281Z,1.90
2019-05-29T14:05:42.505Z,1.80
2019-05-29T14:08:10.788Z,1.73
2019-05-29T14:10:39.084Z,1.70
2019-05-29T14:13:07.496Z,1.77
2019-05-29T14:15:36.721Z,1.70
2019-05-29T14:18:05.077Z,1.90
2019-05-29T14:20:33.394Z,1.67
2019-05-29T14:23:01.697Z,1.90
2019-05-29T14:25:29.914Z,1.60
2019-05-29T14:27:58.141Z,1.83
2019-05-29T14:30:27.390Z,2.07
2019-05-29T14:32:55.591Z,2.03
2019-05-29T14:35:23.872Z,1.97
2019-05-29T14:37:52.078Z,2.30
2019-05-29T14:40:20.366Z,2.10
2019-05-29T14:42:48.570Z,1.70
2019-05-29T14:45:18.074Z,1.73
2019-05-29T14:47:46.275Z,1.67
2019-05-29T14:50:14.548Z,1.70
2019-05-29T14:52:42.751Z,1.73
2019-05-29T14:55:16.173Z,1.80
2019-05-29T14:57:40.921Z,1.60
2019-05-29T15:00:20.928Z,1.70
2019-05-29T15:12:32.252Z,1.90
2019-05-29T15:15:01.473Z,1.70
2019-05-29T15:17:29.871Z,1.57
2019-05-29T15:19:58.105Z,1.50
2019-05-29T15:22:26.364Z,1.70
2019-05-29T15:25:04.503Z,1.60
2019-05-29T15:27:24.445Z,1.70
2019-05-29T15:29:52.621Z,1.50
2019-05-29T15:32:20.837Z,1.67
2019-05-29T15:34:49.057Z,1.80
2019-05-29T15:37:18.801Z,1.60
2019-05-29T15:39:47.210Z,1.80
2019-05-29T15:42:17.031Z,1.80
2019-05-29T15:44:45.321Z,1.87
2019-05-29T15:47:13.538Z,2.00
2019-05-29T15:49:42.709Z,1.93
2019-05-29T15:52:11.042Z,1.60
2019-05-29T15:54:39.272Z,1.40
2019-05-29T15:57:09.061Z,1.80
2019-05-29T15:59:37.312Z,1.50
2019-05-29T16:02:05.524Z,1.67
2019-05-29T16:04:33.721Z,1.67
2019-05-29T16:07:01.995Z,1.60
2019-05-29T16:09:30.244Z,1.70
2019-05-29T16:11:58.445Z,1.30
2019-05-29T16:14:26.624Z,1.80
2019-05-29T16:16:54.800Z,1.60
2019-05-29T16:19:23.054Z,1.60
2019-05-29T16:21:51.291Z,1.30
2019-05-29T16:24:19.501Z,1.50
2019-05-29T16:26:47.717Z,1.63
2019-05-29T16:29:17.683Z,1.70
2019-05-29T16:31:45.806Z,1.60
2019-05-29T16:36:42.989Z,1.70
2019-05-29T16:39:11.417Z,1.70
2019-05-29T16:46:34.558Z,1.73
2019-05-29T16:49:03.762Z,1.40
2019-05-29T16:51:31.993Z,1.53
2019-05-29T16:54:01.208Z,1.63
2019-05-29T16:56:29.478Z,1.50
2019-05-29T16:58:57.671Z,1.62
2019-05-29T17:01:25.843Z,1.70
2019-05-29T17:03:54.012Z,2.30
2019-05-29T17:06:22.509Z,1.65
2019-05-29T17:08:50.848Z,1.60
2019-05-29T17:11:19.012Z,1.50
2019-05-29T17:13:47.224Z,1.70
2019-05-29T17:16:16.397Z,1.90
2019-05-29T17:21:12.016Z,1.80
2019-05-29T17:23:40.225Z,1.90
2019-05-29T17:26:11.040Z,1.80
2019-05-29T17:28:38.356Z,1.73
2019-05-29T17:31:07.539Z,1.50
2019-05-29T17:33:35.741Z,1.87
2019-05-29T17:36:04.021Z,1.67
2019-05-29T17:38:32.268Z,1.80
2019-05-29T17:41:02.418Z,1.60
2019-05-29T17:43:30.589Z,1.70
2019-05-29T17:45:58.779Z,1.60
2019-05-29T17:48:26.949Z,1.77
2019-05-29T17:50:55.139Z,1.60
2019-05-29T17:53:24.255Z,1.60
2019-05-29T17:55:52.586Z,1.50
2019-05-29T17:58:21.449Z,1.70
2019-05-29T18:00:50.882Z,2.00
2019-05-29T18:03:20.024Z,1.50
2019-05-29T18:05:48.328Z,1.80
2019-05-29T18:08:16.709Z,1.60
2019-05-29T18:10:44.986Z,1.50
2019-05-29T18:13:13.160Z,1.63
2019-05-29T18:15:41.457Z,1.80
2019-05-29T18:18:09.637Z,1.90
2019-05-29T18:20:37.833Z,1.60
2019-05-29T18:23:06.032Z,1.73
2019-05-29T18:25:34.200Z,1.90
2019-05-29T18:28:02.384Z,1.93
2019-05-29T18:30:30.606Z,1.77
2019-05-29T18:35:27.046Z,2.33
2019-05-29T18:37:55.465Z,1.85
2019-05-29T18:40:24.291Z,2.13
2019-05-29T18:42:52.575Z,1.67
2019-05-29T18:45:23.467Z,1.60
2019-05-29T18:47:50.770Z,1.90
2019-05-29T18:50:19.211Z,2.17
2019-05-29T18:52:47.401Z,1.87
2019-05-29T18:55:15.682Z,2.03
2019-05-29T18:57:44.350Z,2.13
2019-05-29T19:00:13.041Z,1.90
2019-05-29T19:02:41.204Z,1.80
2019-05-29T19:05:09.589Z,1.90
2019-05-29T19:07:37.768Z,2.27
2019-05-29T19:10:07.043Z,2.30
2019-05-29T19:12:35.807Z,2.70
2019-05-29T19:15:07.320Z,2.30
2019-05-29T19:17:35.662Z,2.70
2019-05-29T19:20:05.107Z,2.37
2019-05-29T19:22:33.331Z,2.70
2019-05-29T19:25:01.671Z,3.03
2019-05-29T19:27:37.420Z,3.20
2019-05-29T19:29:59.871Z,3.57
2019-05-29T19:32:29.273Z,3.67
2019-05-29T19:34:57.659Z,3.00
2019-05-29T19:37:25.930Z,3.57
2019-05-29T19:39:54.146Z,2.87
2019-05-29T19:42:22.369Z,3.00
2019-05-29T19:44:50.538Z,3.00
2019-05-29T19:47:19.992Z,3.43
2019-05-29T19:49:48.167Z,4.03
2019-05-29T19:52:16.352Z,3.70
2019-05-29T19:54:44.535Z,3.70
2019-05-29T19:57:12.776Z,4.07
2019-05-29T19:59:40.966Z,3.70
2019-05-29T20:02:10.202Z,4.07
2019-05-29T20:04:38.487Z,3.97
2019-05-29T20:07:06.759Z,3.77
2019-05-29T20:09:35.435Z,3.27
2019-05-29T20:12:04.709Z,3.47
2019-05-29T20:14:33.799Z,3.10
2019-05-29T20:17:03.733Z,2.97
2019-05-29T20:19:35.825Z,2.90
2019-05-29T20:22:03.591Z,3.00
2019-05-29T20:24:32.767Z,2.73
2019-05-29T20:27:01.086Z,3.33
2019-05-29T20:29:30.276Z,3.30
2019-05-29T20:31:58.569Z,2.60
2019-05-29T20:34:26.765Z,2.90
2019-05-29T20:36:54.947Z,3.03
2019-05-29T20:39:23.315Z,3.33
2019-05-29T20:41:53.522Z,3.07
2019-05-29T20:44:21.828Z,2.63
2019-05-29T20:46:50.113Z,2.70
2019-05-29T20:49:18.472Z,3.03
2019-05-29T20:51:46.982Z,2.73
2019-05-29T20:54:15.262Z,3.10
2019-05-29T20:56:43.431Z,3.10
2019-05-29T20:59:11.837Z,3.43
2019-05-29T21:01:45.085Z,3.10
2019-05-29T21:04:10.292Z,2.80
2019-05-29T21:06:39.113Z,3.10
2019-05-29T21:09:07.460Z,3.07
2019-05-29T21:11:37.466Z,3.47
2019-05-29T21:14:05.828Z,3.13
2019-05-29T21:16:35.514Z,3.13
2019-05-29T21:19:04.033Z,3.40
2019-05-29T21:21:34.165Z,3.10
2019-05-29T21:24:02.400Z,3.43
2019-05-29T21:26:32.142Z,3.33
2019-05-29T21:29:00.324Z,3.00
2019-05-29T21:31:28.576Z,3.00
2019-05-29T21:33:57.153Z,3.03
2019-05-29T21:36:25.614Z,3.47
2019-05-29T21:38:53.905Z,3.57
2019-05-29T21:41:22.105Z,3.60
2019-05-29T21:43:50.288Z,3.80
2019-05-29T21:46:18.481Z,3.60
2019-05-29T21:48:47.486Z,3.77
2019-05-29T21:51:15.939Z,3.87
2019-05-29T21:53:45.411Z,4.07
2019-05-29T21:56:14.666Z,3.80
2019-05-29T21:58:58.939Z,4.13
2019-05-29T22:01:12.831Z,4.33
2019-05-29T22:03:51.343Z,3.40
2019-05-29T22:06:19.812Z,4.47
2019-05-29T22:08:48.027Z,3.97
2019-05-29T22:11:16.195Z,4.63
2019-05-29T22:13:44.409Z,4.10
2019-05-29T22:16:12.661Z,3.90
2019-05-29T22:18:40.867Z,4.10
2019-05-29T22:21:09.121Z,4.00
2019-05-29T22:23:37.300Z,3.90
2019-05-29T22:26:05.475Z,4.70
2019-05-29T22:28:33.670Z,4.20
2019-05-29T22:31:01.856Z,4.30
2019-05-29T22:33:30.036Z,4.87
2019-05-29T22:35:59.324Z,5.00
2019-05-29T22:38:27.692Z,5.50
2019-05-29T22:40:57.729Z,5.17
2019-05-29T22:43:26.013Z,5.00
2019-05-29T22:45:54.204Z,4.85
2019-05-29T22:48:22.376Z,5.07
2019-05-29T22:50:51.633Z,4.00
2019-05-29T22:53:19.901Z,4.70
2019-05-29T22:55:48.157Z,4.45
2019-05-29T22:58:16.338Z,4.30
2019-05-29T23:00:44.549Z,4.50
2019-05-29T23:03:13.642Z,4.00
2019-05-29T23:08:09.164Z,3.93
2019-05-29T23:10:37.369Z,4.17
2019-05-29T23:13:06.016Z,4.30
2019-05-29T23:15:34.395Z,4.43
2019-05-29T23:18:02.855Z,3.90
2019-05-29T23:20:31.058Z,3.90
2019-05-29T23:22:59.273Z,4.13
2019-05-29T23:25:27.439Z,4.30
2019-05-29T23:27:56.882Z,4.47
2019-05-29T23:30:25.198Z,4.23
2019-05-29T23:32:54.783Z,4.53
2019-05-29T23:35:23.113Z,4.60
2019-05-29T23:37:53.058Z,4.60
2019-05-29T23:40:21.255Z,4.40
2019-05-29T23:42:49.504Z,4.37
2019-05-29T23:45:17.699Z,3.80
2019-05-29T23:47:45.869Z,4.50
2019-05-29T23:50:14.153Z,4.53
2019-05-29T23:52:42.324Z,4.10
2019-05-29T23:55:10.576Z,4.40
2019-05-29T23:57:38.744Z,4.17
